Time;durP1;ratioP1;P1;durP2;ratioP2;P2;SDS_P1;SDS_P2;PMS_P1;PMS_P2;Temp;Humidity;BMP_temperature;BMP_pressure;BME280_temperature;BME280_humidity;BME280_pressure;Samples;Min_cycle;Max_cycle;Signal;HPM_P1;HPM_P2
2022/08/19 00:02:45;;;;;;;15.63;10.05;;;27.00;70.70;;;;;;7649124;22;80606;-64
2022/08/19 00:05:46;;;;;;;18.10;11.05;;;27.00;70.60;;;;;;7645178;22;83064;-64
2022/08/19 00:08:46;;;;;;;18.35;11.13;;;27.00;70.60;;;;;;7645388;22;84291;-63
2022/08/19 00:11:47;;;;;;;18.20;10.50;;;27.00;70.60;;;;;;7645426;22;83215;-63
2022/08/19 00:14:48;;;;;;;13.25;9.68;;;27.00;70.60;;;;;;7645562;22;82879;-64
2022/08/19 00:17:48;;;;;;;13.82;10.38;;;27.00;70.60;;;;;;7647662;22;83232;-63
2022/08/19 00:20:48;;;;;;;15.13;9.95;;;27.00;70.60;;;;;;7645648;22;82691;-63
2022/08/19 00:23:49;;;;;;;14.07;9.48;;;27.00;70.70;;;;;;7647436;22;82873;-64
2022/08/19 00:26:50;;;;;;;15.05;9.75;;;27.00;70.80;;;;;;7648049;22;81194;-63
2022/08/19 00:29:50;;;;;;;18.17;9.65;;;27.00;70.80;;;;;;7649063;22;80372;-62
2022/08/19 00:32:51;;;;;;;20.30;10.68;;;27.00;70.80;;;;;;7649252;22;87305;-63
2022/08/19 00:35:51;;;;;;;13.75;8.93;;;27.00;70.90;;;;;;7645754;22;82890;-63
2022/08/19 00:38:52;;;;;;;13.23;8.85;;;26.90;71.00;;;;;;7649930;22;83990;-62
2022/08/19 00:41:53;;;;;;;14.35;9.18;;;27.00;71.10;;;;;;7649637;22;80050;-63
2022/08/19 00:44:53;;;;;;;13.80;8.95;;;26.90;71.00;;;;;;7649245;22;80333;-63
2022/08/19 00:47:54;;;;;;;13.57;9.60;;;26.90;71.00;;;;;;7649166;22;80306;-63
2022/08/19 00:50:55;;;;;;;12.27;9.15;;;26.90;71.00;;;;;;7647808;22;81353;-63
2022/08/19 00:53:55;;;;;;;14.00;9.88;;;26.90;71.10;;;;;;7649055;22;80772;-62
2022/08/19 00:56:56;;;;;;;16.08;10.05;;;26.90;71.10;;;;;;7648966;22;86210;-63
2022/08/19 00:59:56;;;;;;;14.57;9.68;;;26.90;71.10;;;;;;7645799;22;82786;-62
2022/08/19 01:02:57;;;;;;;14.52;10.45;;;26.80;71.10;;;;;;7649522;22;84172;-63
2022/08/19 01:05:57;;;;;;;15.10;9.93;;;26.80;71.10;;;;;;7645429;22;82933;-63
2022/08/19 01:08:58;;;;;;;14.40;9.30;;;26.80;71.10;;;;;;7649678;22;82967;-64
2022/08/19 01:11:58;;;;;;;20.15;9.57;;;26.80;71.20;;;;;;7649120;22;80476;-63
2022/08/19 01:14:59;;;;;;;11.13;8.80;;;26.80;71.20;;;;;;7649026;22;81366;-63
2022/08/19 01:17:59;;;;;;;13.57;9.27;;;26.80;71.30;;;;;;7648943;22;80331;-62
2022/08/19 01:21:00;;;;;;;14.95;9.63;;;26.80;71.50;;;;;;7648909;22;80791;-64
2022/08/19 01:24:00;;;;;;;12.90;9.55;;;26.80;71.60;;;;;;7648778;22;80469;-63
2022/08/19 01:27:01;;;;;;;15.40;10.00;;;26.80;71.50;;;;;;7648891;22;81426;-64
2022/08/19 01:30:01;;;;;;;16.35;8.65;;;26.80;71.40;;;;;;7644818;22;82625;-62
2022/08/19 01:33:02;;;;;;;18.48;11.10;;;26.80;71.20;;;;;;7648801;22;82814;-63
2022/08/19 01:36:02;;;;;;;16.52;9.45;;;26.80;71.20;;;;;;7642738;22;86235;-63
2022/08/19 01:39:03;;;;;;;13.77;9.75;;;26.80;71.10;;;;;;7648753;22;82770;-63
2022/08/19 01:42:04;;;;;;;17.05;9.73;;;26.80;71.00;;;;;;7647188;22;80585;-65
2022/08/19 01:45:04;;;;;;;15.65;9.77;;;26.80;71.00;;;;;;7648439;22;80516;-63
2022/08/19 01:48:05;;;;;;;17.25;9.88;;;26.80;70.90;;;;;;7649036;22;80746;-64
2022/08/19 01:51:05;;;;;;;22.13;10.55;;;26.80;70.90;;;;;;7648775;22;80344;-63
2022/08/19 01:54:06;;;;;;;17.42;10.48;;;26.80;70.80;;;;;;7644994;22;89213;-64
2022/08/19 01:57:06;;;;;;;15.10;9.80;;;26.70;70.80;;;;;;7644614;22;82826;-63
2022/08/19 02:00:07;;;;;;;14.65;9.93;;;26.80;70.80;;;;;;7649130;22;82779;-62
2022/08/19 02:03:11;;;;;;;14.52;10.32;;;26.70;70.80;;;;;;7649361;22;80409;-63
2022/08/19 02:06:12;;;;;;;14.77;10.38;;;26.70;70.80;;;;;;7645009;22;82928;-63
2022/08/19 02:09:12;;;;;;;17.02;9.60;;;26.80;70.80;;;;;;7644501;22;83376;-63
2022/08/19 02:12:13;;;;;;;14.90;9.50;;;26.70;70.90;;;;;;7648834;22;83124;-63
2022/08/19 02:15:13;;;;;;;14.25;9.98;;;26.80;71.00;;;;;;7649206;22;80558;-64
2022/08/19 02:18:14;;;;;;;16.63;9.93;;;26.80;70.80;;;;;;7643392;22;82718;-63
2022/08/19 02:21:15;;;;;;;13.50;8.82;;;26.80;70.60;;;;;;7648546;22;81787;-63
2022/08/19 02:24:15;;;;;;;15.02;10.02;;;26.80;70.60;;;;;;7649047;22;80467;-63
2022/08/19 02:27:16;;;;;;;14.00;9.98;;;26.80;70.60;;;;;;7645348;22;83091;-63
2022/08/19 02:30:17;;;;;;;18.75;10.13;;;26.80;70.60;;;;;;7645218;22;82947;-62
2022/08/19 02:33:17;;;;;;;16.27;9.77;;;26.70;70.40;;;;;;7645087;22;82763;-62
2022/08/19 02:36:17;;;;;;;12.07;8.98;;;26.70;70.30;;;;;;7648548;22;83364;-63
2022/08/19 02:39:18;;;;;;;14.68;10.07;;;26.60;70.40;;;;;;7648942;22;80801;-62
2022/08/19 02:42:18;;;;;;;16.10;9.02;;;26.60;70.50;;;;;;7644770;22;82920;-62
2022/08/19 02:45:19;;;;;;;15.55;10.43;;;26.60;70.60;;;;;;7648464;22;82580;-63
2022/08/19 02:48:19;;;;;;;14.50;9.90;;;26.50;70.80;;;;;;7644104;22;83161;-63
2022/08/19 02:51:20;;;;;;;14.00;9.70;;;26.50;71.20;;;;;;7648756;22;82877;-62
2022/08/19 02:54:20;;;;;;;16.58;11.10;;;26.40;71.20;;;;;;7648551;22;81234;-63
2022/08/19 02:57:21;;;;;;;14.70;9.63;;;26.40;71.20;;;;;;7644657;22;83275;-62
2022/08/19 03:00:23;;;;;;;16.85;10.18;;;26.50;71.30;;;;;;7648619;22;82806;-62
2022/08/19 03:03:23;;;;;;;17.08;9.93;;;26.50;71.40;;;;;;7644932;22;83293;-62
2022/08/19 03:06:24;;;;;;;18.02;9.68;;;26.50;71.40;;;;;;7648531;22;82808;-62
2022/08/19 03:09:24;;;;;;;14.68;9.45;;;26.50;71.20;;;;;;7648545;22;80545;-62
2022/08/19 03:12:25;;;;;;;18.30;10.23;;;26.60;71.80;;;;;;7647023;22;82858;-62
2022/08/19 03:15:25;;;;;;;13.40;9.50;;;26.60;71.10;;;;;;7643992;22;83074;-62
2022/08/19 03:18:26;;;;;;;14.70;9.20;;;26.60;71.20;;;;;;7648767;22;82734;-62
2022/08/19 03:21:26;;;;;;;16.65;9.70;;;26.60;71.10;;;;;;7648917;22;80845;-61
2022/08/19 03:24:27;;;;;;;13.77;9.57;;;26.60;71.00;;;;;;7646538;22;83079;-62
2022/08/19 03:27:28;;;;;;;15.10;9.90;;;26.60;70.90;;;;;;7648040;22;80645;-64
2022/08/19 03:30:29;;;;;;;14.98;10.40;;;26.60;71.10;;;;;;7648250;22;80523;-64
2022/08/19 03:33:29;;;;;;;16.27;10.48;;;26.60;71.00;;;;;;7643374;22;82922;-64
2022/08/19 03:36:30;;;;;;;14.80;9.38;;;26.60;70.80;;;;;;7644200;22;83268;-64
2022/08/19 03:39:30;;;;;;;17.63;10.85;;;26.60;70.90;;;;;;7647649;22;84006;-64
2022/08/19 03:42:31;;;;;;;22.00;9.23;;;26.60;71.00;;;;;;7643863;22;82993;-64
2022/08/19 03:45:31;;;;;;;17.08;9.98;;;26.60;71.00;;;;;;7648371;22;82863;-64
2022/08/19 03:48:31;;;;;;;17.10;9.10;;;26.60;71.00;;;;;;7643647;22;82943;-64
2022/08/19 03:51:32;;;;;;;13.85;8.88;;;26.60;70.90;;;;;;7647895;22;82999;-62
2022/08/19 03:54:32;;;;;;;15.25;10.07;;;26.60;70.70;;;;;;7647768;22;80339;-63
2022/08/19 03:57:34;;;;;;;15.65;10.63;;;26.70;70.70;;;;;;7643688;22;82931;-63
2022/08/19 04:00:35;;;;;;;13.07;9.43;;;26.70;70.60;;;;;;7643640;22;83253;-63
2022/08/19 04:03:36;;;;;;;17.98;10.00;;;26.70;70.70;;;;;;7646124;22;86067;-65
2022/08/19 04:06:36;;;;;;;17.08;11.13;;;26.60;70.70;;;;;;7642382;22;82676;-66
2022/08/19 04:09:37;;;;;;;17.85;10.40;;;26.70;70.70;;;;;;7643764;22;83080;-64
2022/08/19 04:12:39;;;;;;;23.40;10.20;;;26.60;70.80;;;;;;7641234;22;84176;-64
2022/08/19 04:15:41;;;;;;;17.92;10.93;;;26.60;70.80;;;;;;7643416;22;83169;-63
2022/08/19 04:18:42;;;;;;;19.35;11.75;;;26.60;70.80;;;;;;7643978;22;82915;-64
2022/08/19 04:21:42;;;;;;;18.02;10.77;;;26.60;70.90;;;;;;7641902;22;82920;-62
2022/08/19 04:24:43;;;;;;;13.82;10.13;;;26.70;71.00;;;;;;7643382;22;82910;-65
2022/08/19 04:27:46;;;;;;;16.17;10.20;;;26.70;71.00;;;;;;7641020;22;83563;-67
2022/08/19 04:30:47;;;;;;;17.55;10.57;;;26.70;70.90;;;;;;7643152;22;82968;-68
2022/08/19 04:33:47;;;;;;;13.77;9.43;;;26.70;70.70;;;;;;7643613;22;82948;-65
2022/08/19 04:36:50;;;;;;;15.10;9.82;;;26.70;70.60;;;;;;7646129;22;83268;-66
2022/08/19 04:43:12;;;;;;;17.85;11.23;;;26.70;70.30;;;;;;7641667;22;83102;-65
2022/08/19 04:46:12;;;;;;;21.83;10.32;;;26.70;70.30;;;;;;7644506;22;82887;-65
2022/08/19 04:49:13;;;;;;;14.30;9.75;;;26.70;70.40;;;;;;7645262;22;83070;-65
2022/08/19 04:52:13;;;;;;;15.98;10.23;;;26.80;70.60;;;;;;7649604;22;82958;-64
2022/08/19 04:55:14;;;;;;;25.45;10.77;;;26.80;70.90;;;;;;7643496;22;82799;-64
2022/08/19 04:58:16;;;;;;;17.52;10.20;;;26.80;70.70;;;;;;7643370;22;83309;-63
2022/08/19 05:01:16;;;;;;;15.13;10.38;;;26.80;70.80;;;;;;7642632;22;84251;-61
2022/08/19 05:04:17;;;;;;;16.80;10.07;;;26.90;70.60;;;;;;7645107;22;82764;-63
2022/08/19 05:07:18;;;;;;;13.10;10.15;;;26.90;70.80;;;;;;7644966;22;84182;-63
2022/08/19 05:10:20;;;;;;;24.67;12.05;;;26.90;70.50;;;;;;7644987;22;82942;-62
2022/08/19 05:13:20;;;;;;;17.23;11.27;;;26.90;70.50;;;;;;7644919;22;83500;-63
2022/08/19 05:16:21;;;;;;;18.40;10.80;;;27.00;70.90;;;;;;7645128;22;84225;-63
2022/08/19 05:22:41;;;;;;;19.20;11.25;;;27.00;70.70;;;;;;7644745;22;84705;-63
2022/08/19 05:25:41;;;;;;;16.23;10.52;;;27.00;70.50;;;;;;7607183;22;88015;-63
2022/08/19 05:28:42;;;;;;;16.90;11.13;;;27.00;70.80;;;;;;7644735;22;83083;-64
2022/08/19 05:31:42;;;;;;;22.25;13.93;;;27.00;71.70;;;;;;7645118;22;82847;-64
2022/08/19 05:34:43;;;;;;;19.20;12.18;;;27.00;71.00;;;;;;7643122;22;83094;-64
2022/08/19 05:37:43;;;;;;;22.15;10.90;;;27.10;71.00;;;;;;7644081;22;83489;-63
2022/08/19 05:40:47;;;;;;;15.32;10.40;;;27.10;70.90;;;;;;7644063;22;83824;-64
2022/08/19 05:43:50;;;;;;;17.50;10.27;;;27.10;70.40;;;;;;7643307;22;84060;-63
2022/08/19 05:46:53;;;;;;;18.23;11.55;;;27.10;70.70;;;;;;7644402;22;83331;-65
2022/08/19 05:49:54;;;;;;;16.27;10.65;;;27.10;70.50;;;;;;7643576;22;82960;-62
2022/08/19 05:52:54;;;;;;;18.33;11.32;;;27.10;70.50;;;;;;7643321;22;82951;-63
2022/08/19 05:55:55;;;;;;;17.70;10.95;;;27.10;70.30;;;;;;7637273;22;84159;-63
2022/08/19 05:58:55;;;;;;;16.85;10.57;;;27.10;70.20;;;;;;7638228;22;83893;-63
2022/08/19 06:01:56;;;;;;;17.17;11.43;;;27.10;70.20;;;;;;7643109;22;83189;-63
2022/08/19 06:04:57;;;;;;;15.98;10.43;;;27.10;70.10;;;;;;7642997;22;84341;-63
2022/08/19 06:07:58;;;;;;;15.13;10.63;;;27.10;70.90;;;;;;7641129;22;85985;-63
2022/08/19 06:10:58;;;;;;;19.40;9.90;;;27.10;70.20;;;;;;7641408;22;84172;-62
2022/08/19 06:13:59;;;;;;;15.13;9.95;;;27.20;70.10;;;;;;7647964;22;83010;-64
2022/08/19 06:17:01;;;;;;;13.77;8.75;;;27.20;70.30;;;;;;7648145;22;80785;-62
2022/08/19 06:20:01;;;;;;;16.75;9.45;;;27.20;70.30;;;;;;7648271;22;80280;-63
2022/08/19 06:23:02;;;;;;;14.90;10.07;;;27.20;70.60;;;;;;7646321;22;80911;-63
2022/08/19 06:26:02;;;;;;;15.48;9.60;;;27.20;70.70;;;;;;7643025;22;82879;-63
2022/08/19 06:29:04;;;;;;;13.40;9.48;;;27.20;71.50;;;;;;7644305;22;84428;-71
2022/08/19 06:32:04;;;;;;;17.67;10.18;;;27.20;71.30;;;;;;7645716;22;80851;-69
2022/08/19 06:35:05;;;;;;;18.65;10.68;;;27.20;71.20;;;;;;7642820;22;83263;-63
2022/08/19 06:38:05;;;;;;;16.30;10.75;;;27.20;71.40;;;;;;7643022;22;83045;-62
2022/08/19 06:41:06;;;;;;;21.42;10.93;;;27.30;72.00;;;;;;7642235;22;83888;-63
2022/08/19 06:44:06;;;;;;;15.75;10.60;;;27.30;71.90;;;;;;7643356;22;82641;-64
2022/08/19 06:47:07;;;;;;;17.88;10.57;;;27.30;72.30;;;;;;7643373;22;83292;-64
2022/08/19 06:50:07;;;;;;;18.92;10.10;;;27.30;72.20;;;;;;7643676;22;84132;-62
2022/08/19 06:53:08;;;;;;;14.10;9.48;;;27.30;72.20;;;;;;7643960;22;83115;-63
2022/08/19 06:56:08;;;;;;;25.75;11.88;;;27.30;72.20;;;;;;7646942;22;81627;-63
2022/08/19 06:59:09;;;;;;;25.80;10.10;;;27.30;72.20;;;;;;7643795;22;83063;-63
2022/08/19 07:02:09;;;;;;;14.77;9.13;;;27.30;71.90;;;;;;7642050;22;84005;-65
2022/08/19 07:05:10;;;;;;;15.10;9.50;;;27.30;72.20;;;;;;7646677;22;84182;-64
2022/08/19 07:08:10;;;;;;;19.80;9.77;;;27.30;71.80;;;;;;7645532;22;81418;-62
2022/08/19 07:11:12;;;;;;;16.55;10.30;;;27.30;71.90;;;;;;7646960;22;87529;-64
2022/08/19 07:14:13;;;;;;;16.63;9.40;;;27.40;72.50;;;;;;7643280;22;82661;-63
2022/08/19 07:17:14;;;;;;;15.73;9.27;;;27.40;72.40;;;;;;7645260;22;82149;-63
2022/08/19 07:20:16;;;;;;;14.60;9.95;;;27.40;72.60;;;;;;7647629;22;86795;-63
2022/08/19 07:23:16;;;;;;;17.25;10.73;;;27.40;72.50;;;;;;7647213;22;80273;-65
2022/08/19 07:26:17;;;;;;;14.75;8.68;;;27.50;73.40;;;;;;7642667;22;83044;-65
2022/08/19 07:29:17;;;;;;;15.85;9.40;;;27.50;73.10;;;;;;7648202;22;82957;-65
2022/08/19 07:32:18;;;;;;;18.75;11.60;;;27.50;72.70;;;;;;7649063;22;80236;-65
2022/08/19 07:35:19;;;;;;;16.23;9.95;;;27.60;72.50;;;;;;7643223;22;83103;-76
2022/08/19 07:38:19;;;;;;;22.40;10.07;;;27.60;72.00;;;;;;7648541;22;82805;-66
2022/08/19 07:41:20;;;;;;;12.45;8.77;;;27.60;72.60;;;;;;7645217;22;82919;-67
2022/08/19 07:44:20;;;;;;;16.88;10.00;;;27.60;72.60;;;;;;7648409;22;82937;-67
2022/08/19 07:47:21;;;;;;;15.63;9.18;;;27.60;72.40;;;;;;7645402;22;83586;-65
2022/08/19 07:50:22;;;;;;;15.73;9.75;;;27.60;72.40;;;;;;7648685;22;83354;-65
2022/08/19 07:53:22;;;;;;;16.52;9.40;;;27.70;72.50;;;;;;7648446;22;80933;-64
2022/08/19 07:56:23;;;;;;;21.58;10.50;;;27.70;73.20;;;;;;7648382;22;80254;-66
2022/08/19 07:59:23;;;;;;;19.45;8.93;;;27.60;72.70;;;;;;7643609;22;83040;-66
2022/08/19 08:02:24;;;;;;;231.70;101.15;;;27.70;73.10;;;;;;7647438;22;82916;-67
2022/08/19 08:12:03;;;;;;;295.35;121.30;;;27.80;72.60;;;;;;7640481;22;85419;-67
2022/08/19 08:15:04;;;;;;;284.27;116.40;;;27.80;72.80;;;;;;7640265;22;85406;-66
2022/08/19 08:18:05;;;;;;;235.30;96.57;;;27.80;72.80;;;;;;7639802;22;86216;-69
2022/08/19 08:21:06;;;;;;;183.45;74.63;;;27.90;73.00;;;;;;7645985;22;85237;-68
2022/08/19 08:24:06;;;;;;;158.30;69.47;;;27.90;72.50;;;;;;7645929;22;83534;-65
2022/08/19 08:27:07;;;;;;;134.98;55.58;;;27.90;72.90;;;;;;7644630;22;84143;-67
2022/08/19 08:30:09;;;;;;;112.78;44.53;;;27.90;73.80;;;;;;7645487;22;82824;-65
2022/08/19 08:33:09;;;;;;;77.38;34.97;;;27.90;74.00;;;;;;7645719;22;83100;-65
2022/08/19 08:36:10;;;;;;;71.68;30.83;;;27.90;74.00;;;;;;7645510;22;83208;-65
2022/08/19 08:39:11;;;;;;;63.40;28.25;;;27.90;73.80;;;;;;7645663;22;83201;-66
2022/08/19 08:42:12;;;;;;;47.55;21.90;;;27.90;74.00;;;;;;7644446;22;84284;-63
2022/08/19 08:45:14;;;;;;;37.97;18.77;;;27.90;74.30;;;;;;7644484;22;83071;-65
2022/08/19 08:48:15;;;;;;;73.93;22.58;;;27.90;74.50;;;;;;7644280;22;83107;-64
2022/08/19 08:51:15;;;;;;;72.35;22.92;;;27.90;74.50;;;;;;7644681;22;82891;-64
2022/08/19 08:54:16;;;;;;;78.95;25.27;;;28.00;74.30;;;;;;7644451;22;82985;-61
2022/08/19 08:57:16;;;;;;;61.28;23.55;;;28.00;74.70;;;;;;7644785;22;82901;-62
2022/08/19 09:00:17;;;;;;;63.08;20.67;;;28.00;75.30;;;;;;7644614;22;83296;-61
2022/08/19 09:03:17;;;;;;;54.17;18.42;;;28.00;76.90;;;;;;7644773;22;83213;-62
2022/08/19 09:06:18;;;;;;;45.63;16.85;;;28.00;77.20;;;;;;7644586;22;83142;-61
2022/08/19 09:09:18;;;;;;;41.03;16.92;;;28.10;77.90;;;;;;7644319;22;83408;-65
2022/08/19 09:12:19;;;;;;;26.58;13.98;;;28.10;78.30;;;;;;7644516;22;83020;-64
2022/08/19 09:15:19;;;;;;;22.08;12.43;;;28.10;79.50;;;;;;7644318;22;83157;-62
2022/08/19 09:18:20;;;;;;;26.85;13.68;;;28.20;79.20;;;;;;7644129;22;84244;-63
2022/08/19 09:21:20;;;;;;;24.42;12.63;;;28.10;81.10;;;;;;7644137;22;84027;-61
2022/08/19 09:24:21;;;;;;;15.98;10.90;;;28.20;80.10;;;;;;7643956;22;82856;-64
2022/08/19 09:27:23;;;;;;;19.20;12.05;;;28.20;78.70;;;;;;7644600;22;83206;-64
2022/08/19 09:30:24;;;;;;;16.73;10.90;;;28.30;77.90;;;;;;7643822;22;82909;-70
2022/08/19 09:33:24;;;;;;;15.35;11.55;;;28.30;77.10;;;;;;7644169;22;83038;-61
2022/08/19 09:36:25;;;;;;;18.73;11.00;;;28.30;77.10;;;;;;7643606;22;84279;-64
2022/08/19 09:39:26;;;;;;;17.27;10.43;;;28.30;76.80;;;;;;7644159;22;84915;-63
2022/08/19 09:42:26;;;;;;;20.50;11.80;;;28.30;76.70;;;;;;7644541;22;82754;-61
2022/08/19 09:45:27;;;;;;;18.42;11.35;;;28.30;76.60;;;;;;7642872;22;83817;-62
2022/08/19 09:48:27;;;;;;;16.77;10.65;;;28.30;76.50;;;;;;7644731;22;82942;-64
2022/08/19 09:51:28;;;;;;;16.73;11.02;;;28.40;76.90;;;;;;7644536;22;83057;-64
2022/08/19 09:54:29;;;;;;;21.63;11.15;;;28.40;77.50;;;;;;7644360;22;83141;-64
2022/08/19 09:57:29;;;;;;;14.80;9.50;;;28.50;77.20;;;;;;7643715;22;83000;-68
2022/08/19 10:00:31;;;;;;;14.55;9.50;;;28.60;77.00;;;;;;7646234;22;82736;-68
2022/08/19 10:03:31;;;;;;;16.15;9.30;;;28.70;75.10;;;;;;7648394;22;81099;-68
2022/08/19 10:06:33;;;;;;;16.05;9.93;;;28.80;76.20;;;;;;7648493;22;80283;-70
2022/08/19 10:09:33;;;;;;;17.60;9.75;;;28.90;75.30;;;;;;7648495;22;80350;-70
2022/08/19 10:12:34;;;;;;;12.52;9.77;;;28.90;73.90;;;;;;7648510;22;80575;-70
2022/08/19 10:15:34;;;;;;;13.88;9.52;;;28.90;73.80;;;;;;7646680;22;81534;-70
2022/08/19 10:18:35;;;;;;;15.27;9.48;;;28.90;72.80;;;;;;7648776;22;80567;-66
2022/08/19 10:21:35;;;;;;;23.52;10.80;;;28.90;72.30;;;;;;7648310;22;80374;-65
2022/08/19 10:24:36;;;;;;;23.25;10.50;;;28.90;71.80;;;;;;7644636;22;90339;-65
2022/08/19 10:27:37;;;;;;;14.77;9.88;;;28.90;72.10;;;;;;7644144;22;82916;-65
2022/08/19 10:30:38;;;;;;;17.38;9.65;;;29.00;71.30;;;;;;7647991;22;82942;-62
2022/08/19 10:33:38;;;;;;;15.88;9.68;;;29.00;70.50;;;;;;7648107;22;80760;-66
2022/08/19 10:36:39;;;;;;;14.65;9.68;;;28.60;70.00;;;;;;7648283;22;80348;-64
2022/08/19 10:39:39;;;;;;;13.98;9.20;;;28.70;71.20;;;;;;7646259;22;81445;-64
2022/08/19 10:42:40;;;;;;;12.88;8.13;;;28.80;69.90;;;;;;7646198;22;80573;-65
2022/08/19 10:45:40;;;;;;;13.63;8.93;;;28.90;68.30;;;;;;7647943;22;80464;-64
2022/08/19 10:48:41;;;;;;;13.50;9.75;;;28.90;67.60;;;;;;7646505;22;81531;-64
2022/08/19 10:58:24;;;;;;;11.27;8.73;;;29.10;67.10;;;;;;7648340;22;80919;-64
2022/08/19 11:01:25;;;;;;;12.30;8.90;;;29.10;67.00;;;;;;7647853;22;80724;-62
2022/08/19 11:04:25;;;;;;;13.40;8.93;;;29.10;66.80;;;;;;7648035;22;80308;-63
2022/08/19 11:07:26;;;;;;;18.05;9.30;;;29.10;67.10;;;;;;7647927;22;86921;-62
2022/08/19 11:10:26;;;;;;;15.93;8.95;;;29.20;68.30;;;;;;7648040;22;80687;-62
2022/08/19 11:13:27;;;;;;;17.13;8.73;;;29.60;67.50;;;;;;7648307;22;80772;-62
2022/08/19 11:16:29;;;;;;;15.35;9.10;;;29.90;65.50;;;;;;7648345;22;80295;-63
2022/08/19 11:19:30;;;;;;;16.30;8.52;;;30.00;64.80;;;;;;7646173;22;80652;-62
2022/08/19 11:22:30;;;;;;;11.43;7.75;;;30.10;64.40;;;;;;7647883;22;80312;-63
2022/08/19 11:25:31;;;;;;;14.77;9.13;;;30.40;62.90;;;;;;7645572;22;82143;-63
2022/08/19 11:28:31;;;;;;;20.88;12.18;;;30.30;63.60;;;;;;7647740;22;80281;-63
2022/08/19 11:31:32;;;;;;;20.55;10.60;;;30.10;63.50;;;;;;7643694;22;82832;-63
2022/08/19 11:34:32;;;;;;;13.57;8.82;;;30.10;65.30;;;;;;7643520;22;83112;-64
2022/08/19 11:37:36;;;;;;;12.60;8.80;;;30.40;63.60;;;;;;7647201;22;83012;-63
2022/08/19 11:40:37;;;;;;;12.85;10.27;;;30.50;64.20;;;;;;7647176;22;80689;-62
2022/08/19 11:43:39;;;;;;;11.50;8.52;;;30.50;65.30;;;;;;7643263;22;83172;-63
2022/08/19 11:46:40;;;;;;;12.23;8.63;;;30.70;64.70;;;;;;7647079;22;83412;-64
2022/08/19 11:49:41;;;;;;;16.13;9.40;;;30.90;62.90;;;;;;7646438;22;80739;-63
2022/08/19 11:52:44;;;;;;;13.20;8.77;;;30.80;63.50;;;;;;7646434;22;85022;-65
2022/08/19 11:55:45;;;;;;;16.42;9.15;;;30.80;64.40;;;;;;7647168;22;81036;-63
2022/08/19 11:58:45;;;;;;;12.98;8.18;;;30.80;64.00;;;;;;7646942;22;80397;-64
2022/08/19 12:01:46;;;;;;;11.13;8.88;;;30.90;64.30;;;;;;7645963;22;81677;-63
2022/08/19 12:04:47;;;;;;;12.25;8.52;;;30.80;64.50;;;;;;7646960;22;80785;-64
2022/08/19 12:07:47;;;;;;;21.30;9.18;;;30.80;65.50;;;;;;7646447;22;80389;-64
2022/08/19 12:10:48;;;;;;;14.50;9.10;;;31.20;63.10;;;;;;7646063;22;80681;-63
2022/08/19 12:13:49;;;;;;;12.88;8.95;;;31.20;62.00;;;;;;7646407;22;80065;-64
2022/08/19 12:16:50;;;;;;;12.73;7.63;;;31.10;62.20;;;;;;7646363;22;80828;-64
2022/08/19 12:19:50;;;;;;;13.02;8.15;;;31.20;60.70;;;;;;7643164;22;80473;-63
2022/08/19 12:22:51;;;;;;;10.77;7.78;;;31.20;60.40;;;;;;7644318;22;80784;-64
2022/08/19 12:25:51;;;;;;;9.10;7.47;;;31.20;60.90;;;;;;7643505;22;80294;-63
2022/08/19 12:28:52;;;;;;;9.68;7.82;;;31.30;60.00;;;;;;7644955;22;80268;-64
2022/08/19 12:31:52;;;;;;;9.30;7.00;;;31.40;59.10;;;;;;7643987;22;80235;-62
2022/08/19 12:34:53;;;;;;;12.05;7.90;;;31.40;58.70;;;;;;7642165;22;82956;-62
2022/08/19 12:37:54;;;;;;;13.50;7.80;;;31.20;59.80;;;;;;7641930;22;80443;-63
2022/08/19 12:40:55;;;;;;;11.65;8.60;;;31.10;61.00;;;;;;7644565;22;80589;-62
2022/08/19 12:43:55;;;;;;;11.80;8.73;;;30.80;62.00;;;;;;7640668;22;81470;-63
2022/08/19 12:46:56;;;;;;;11.23;8.73;;;30.70;62.30;;;;;;7643322;22;80967;-63
2022/08/19 12:49:56;;;;;;;12.55;8.43;;;30.60;63.30;;;;;;7643122;22;81255;-62
2022/08/19 12:52:57;;;;;;;14.10;9.15;;;30.40;64.00;;;;;;7644379;22;80403;-63
2022/08/19 12:55:59;;;;;;;13.75;8.27;;;30.30;63.00;;;;;;7643432;22;80467;-62
2022/08/19 12:59:00;;;;;;;12.27;8.88;;;30.20;64.40;;;;;;7644167;22;80634;-62
2022/08/19 13:02:00;;;;;;;12.95;8.52;;;30.10;64.40;;;;;;7643528;22;80412;-63
2022/08/19 13:05:01;;;;;;;12.95;8.18;;;30.20;64.50;;;;;;7645112;22;81028;-63
2022/08/19 13:08:01;;;;;;;11.80;9.25;;;30.30;63.60;;;;;;7646099;22;80448;-63
2022/08/19 13:11:02;;;;;;;9.75;8.05;;;30.30;63.80;;;;;;7647023;22;81295;-62
2022/08/19 13:14:02;;;;;;;12.77;8.05;;;30.20;63.70;;;;;;7647557;22;80090;-64
2022/08/19 13:17:03;;;;;;;19.33;8.75;;;30.10;63.30;;;;;;7648151;22;80373;-64
2022/08/19 13:20:05;;;;;;;8.82;7.28;;;30.00;64.00;;;;;;7646007;22;81504;-63
2022/08/19 13:23:05;;;;;;;13.48;8.02;;;30.00;64.10;;;;;;7648021;22;80493;-64
2022/08/19 13:26:06;;;;;;;13.95;7.95;;;30.10;63.00;;;;;;7645422;22;81288;-63
2022/08/19 13:35:45;;;;;;;9.13;7.35;;;30.00;63.30;;;;;;7648044;22;80511;-63
2022/08/19 13:38:45;;;;;;;24.30;8.05;;;30.00;62.00;;;;;;7646342;22;80782;-63
2022/08/19 13:41:49;;;;;;;13.05;7.03;;;29.90;61.90;;;;;;7647818;22;80323;-64
2022/08/19 13:44:50;;;;;;;11.70;7.35;;;29.80;61.40;;;;;;7646608;22;80976;-64
2022/08/19 13:47:50;;;;;;;10.55;7.57;;;29.80;62.30;;;;;;7647088;22;81308;-64
2022/08/19 13:50:51;;;;;;;10.55;6.97;;;29.80;62.90;;;;;;7644711;22;80869;-64
2022/08/19 13:53:51;;;;;;;14.18;7.60;;;29.90;62.40;;;;;;7646275;22;80640;-64
2022/08/19 13:56:52;;;;;;;18.55;7.30;;;29.90;62.30;;;;;;7646444;22;80332;-64
2022/08/19 13:59:52;;;;;;;12.75;7.63;;;29.90;61.80;;;;;;7646028;22;80589;-64
2022/08/19 14:02:53;;;;;;;10.32;7.60;;;29.80;61.30;;;;;;7646206;22;81000;-64
2022/08/19 14:05:54;;;;;;;8.05;6.47;;;29.80;61.80;;;;;;7647882;22;80358;-63
2022/08/19 14:08:54;;;;;;;13.90;7.80;;;29.90;61.50;;;;;;7648096;22;80562;-63
2022/08/19 14:11:55;;;;;;;9.70;6.97;;;29.90;61.30;;;;;;7647096;22;80349;-63
2022/08/19 14:14:55;;;;;;;15.70;7.28;;;30.10;60.90;;;;;;7647402;22;80794;-64
2022/08/19 14:17:56;;;;;;;10.38;7.10;;;30.10;61.30;;;;;;7647400;22;80465;-63
2022/08/19 14:20:56;;;;;;;16.33;8.18;;;30.10;61.60;;;;;;7646056;22;81518;-70
2022/08/19 14:23:57;;;;;;;10.27;6.03;;;30.10;60.80;;;;;;7648314;22;80300;-65
2022/08/19 14:26:57;;;;;;;9.00;6.68;;;30.10;61.10;;;;;;7648388;22;80446;-64
2022/08/19 14:29:58;;;;;;;9.82;7.00;;;30.10;61.70;;;;;;7647871;22;81367;-64
2022/08/19 14:32:58;;;;;;;10.93;7.55;;;30.10;62.10;;;;;;7648552;22;80559;-66
2022/08/19 14:36:00;;;;;;;9.45;6.70;;;30.00;61.70;;;;;;7648161;22;80230;-66
2022/08/19 14:39:00;;;;;;;9.32;6.40;;;30.00;62.10;;;;;;7648187;22;80223;-64
2022/08/19 14:42:01;;;;;;;15.73;8.48;;;29.90;62.10;;;;;;7648195;22;80689;-65
2022/08/19 14:45:02;;;;;;;12.85;6.88;;;29.90;61.90;;;;;;7648136;22;80639;-64
2022/08/19 14:48:02;;;;;;;9.07;7.03;;;29.90;62.20;;;;;;7646855;22;80153;-64
2022/08/19 14:51:03;;;;;;;12.77;6.47;;;29.90;62.30;;;;;;7647473;22;80344;-65
2022/08/19 14:54:03;;;;;;;8.38;6.93;;;29.90;63.00;;;;;;7644896;22;81116;-64
2022/08/19 14:57:04;;;;;;;8.35;6.40;;;29.80;62.80;;;;;;7647671;22;80171;-65
2022/08/19 15:00:04;;;;;;;14.18;6.55;;;29.80;62.70;;;;;;7647527;22;81626;-63
2022/08/19 15:03:05;;;;;;;9.85;7.40;;;29.90;63.40;;;;;;7646485;22;82481;-64
2022/08/19 15:06:06;;;;;;;7.43;6.40;;;29.80;62.60;;;;;;7646850;22;81412;-64
2022/08/19 15:09:06;;;;;;;12.85;7.07;;;29.80;62.40;;;;;;7648335;22;81927;-63
2022/08/19 15:12:07;;;;;;;6.65;5.72;;;29.70;62.10;;;;;;7648742;22;80333;-65
2022/08/19 15:15:07;;;;;;;9.18;6.93;;;29.70;62.30;;;;;;7647043;22;80388;-65
2022/08/19 15:18:10;;;;;;;13.93;6.85;;;29.60;61.90;;;;;;7647957;22;81414;-64
2022/08/19 15:21:12;;;;;;;9.70;6.35;;;29.60;62.50;;;;;;7647753;22;80730;-63
2022/08/19 15:24:12;;;;;;;13.23;6.72;;;29.50;62.40;;;;;;7648667;22;81439;-63
2022/08/19 15:27:13;;;;;;;10.15;6.18;;;29.50;62.30;;;;;;7648547;22;80206;-63
2022/08/19 15:30:13;;;;;;;15.25;6.47;;;29.50;62.30;;;;;;7648634;22;80219;-64
2022/08/19 15:33:14;;;;;;;8.20;6.43;;;29.50;62.50;;;;;;7648584;22;80565;-64
2022/08/19 15:36:15;;;;;;;7.82;6.22;;;29.40;62.70;;;;;;7648518;22;80358;-63
2022/08/19 15:39:15;;;;;;;10.63;7.43;;;29.40;62.60;;;;;;7647846;22;80141;-64
2022/08/19 15:42:16;;;;;;;10.23;6.95;;;29.40;62.60;;;;;;7647695;22;80451;-63
2022/08/19 15:45:16;;;;;;;9.00;6.38;;;29.40;62.90;;;;;;7648890;22;81473;-64
2022/08/19 15:48:17;;;;;;;16.70;7.55;;;29.30;62.90;;;;;;7648458;22;80592;-62
2022/08/19 15:51:17;;;;;;;11.63;6.25;;;29.30;63.20;;;;;;7648857;22;80361;-63